sensor_id;sensor_type;location;lat;lon;timestamp;pressure;altitude;pressure_sealevel;temperature;humidity
36222;BME280;22266;52.340;4.962;2023-09-12T00:02:05;101281.34;;;21.46;79.31
36222;BME280;22266;52.340;4.962;2023-09-12T00:04:31;101278.06;;;21.44;79.40
36222;BME280;22266;52.340;4.962;2023-09-12T00:06:58;101279.13;;;21.43;79.27
36222;BME280;22266;52.340;4.962;2023-09-12T00:09:24;101287.59;;;21.41;79.36
36222;BME280;22266;52.340;4.962;2023-09-12T00:11:51;101283.22;;;21.40;79.45
36222;BME280;22266;52.340;4.962;2023-09-12T00:14:17;101289.78;;;21.39;79.52
36222;BME280;22266;52.340;4.962;2023-09-12T00:16:44;101281.81;;;21.38;79.73
36222;BME280;22266;52.340;4.962;2023-09-12T00:19:10;101286.97;;;21.34;79.28
36222;BME280;22266;52.340;4.962;2023-09-12T00:21:37;101277.34;;;21.32;79.35
36222;BME280;22266;52.340;4.962;2023-09-12T00:24:04;101279.47;;;21.30;79.51
36222;BME280;22266;52.340;4.962;2023-09-12T00:26:30;101278.94;;;21.28;79.65
36222;BME280;22266;52.340;4.962;2023-09-12T00:28:58;101279.75;;;21.28;79.70
36222;BME280;22266;52.340;4.962;2023-09-12T00:31:24;101273.69;;;21.26;79.47
36222;BME280;22266;52.340;4.962;2023-09-12T00:33:51;101279.44;;;21.24;79.62
36222;BME280;22266;52.340;4.962;2023-09-12T00:36:17;101271.47;;;21.23;79.66
36222;BME280;22266;52.340;4.962;2023-09-12T00:38:44;101267.59;;;21.19;79.52
36222;BME280;22266;52.340;4.962;2023-09-12T00:41:10;101263.44;;;21.16;79.79
36222;BME280;22266;52.340;4.962;2023-09-12T00:43:36;101274.41;;;21.16;79.81
36222;BME280;22266;52.340;4.962;2023-09-12T00:46:03;101280.97;;;21.15;79.59
36222;BME280;22266;52.340;4.962;2023-09-12T00:48:30;101273.81;;;21.14;79.93
36222;BME280;22266;52.340;4.962;2023-09-12T00:50:57;101272.75;;;21.15;79.93
36222;BME280;22266;52.340;4.962;2023-09-12T00:53:24;101264.22;;;21.12;79.94
36222;BME280;22266;52.340;4.962;2023-09-12T00:55:54;101266.13;;;21.11;79.84
36222;BME280;22266;52.340;4.962;2023-09-12T00:58:23;101253.22;;;21.07;79.88
36222;BME280;22266;52.340;4.962;2023-09-12T01:00:51;101255.09;;;21.06;79.79
36222;BME280;22266;52.340;4.962;2023-09-12T01:03:17;101261.66;;;21.05;79.80
36222;BME280;22266;52.340;4.962;2023-09-12T01:05:45;101261.09;;;21.03;79.96
36222;BME280;22266;52.340;4.962;2023-09-12T01:08:12;101259.41;;;21.02;79.96
36222;BME280;22266;52.340;4.962;2023-09-12T01:10:39;101256.69;;;21.02;79.75
36222;BME280;22266;52.340;4.962;2023-09-12T01:13:06;101255.28;;;20.99;79.64
36222;BME280;22266;52.340;4.962;2023-09-12T01:15:32;101248.16;;;20.98;79.67
36222;BME280;22266;52.340;4.962;2023-09-12T01:17:59;101251.13;;;20.97;79.60
36222;BME280;22266;52.340;4.962;2023-09-12T01:20:29;101254.38;;;20.94;79.65
36222;BME280;22266;52.340;4.962;2023-09-12T01:23:13;101255.47;;;20.93;79.31
36222;BME280;22266;52.340;4.962;2023-09-12T01:28:36;101263.28;;;20.84;79.50
36222;BME280;22266;52.340;4.962;2023-09-12T01:31:09;101257.50;;;20.81;79.51
36222;BME280;22266;52.340;4.962;2023-09-12T01:33:36;101262.41;;;20.79;79.69
36222;BME280;22266;52.340;4.962;2023-09-12T01:36:03;101259.66;;;20.79;79.62
36222;BME280;22266;52.340;4.962;2023-09-12T01:38:30;101264.53;;;20.77;80.02
36222;BME280;22266;52.340;4.962;2023-09-12T01:40:56;101259.91;;;20.77;79.74
36222;BME280;22266;52.340;4.962;2023-09-12T01:43:24;101262.91;;;20.76;79.78
36222;BME280;22266;52.340;4.962;2023-09-12T01:45:55;101257.66;;;20.74;79.71
36222;BME280;22266;52.340;4.962;2023-09-12T01:48:26;101256.84;;;20.73;80.07
36222;BME280;22266;52.340;4.962;2023-09-12T01:50:53;101269.69;;;20.73;80.07
36222;BME280;22266;52.340;4.962;2023-09-12T01:53:20;101264.47;;;20.71;80.02
36222;BME280;22266;52.340;4.962;2023-09-12T01:55:47;101264.72;;;20.70;80.11
36222;BME280;22266;52.340;4.962;2023-09-12T01:58:15;101264.16;;;20.68;79.98
36222;BME280;22266;52.340;4.962;2023-09-12T02:00:41;101266.28;;;20.66;80.08
36222;BME280;22266;52.340;4.962;2023-09-12T02:03:08;101261.91;;;20.65;80.01
36222;BME280;22266;52.340;4.962;2023-09-12T02:05:36;101267.63;;;20.63;80.21
36222;BME280;22266;52.340;4.962;2023-09-12T02:08:04;101261.34;;;20.63;80.15
36222;BME280;22266;52.340;4.962;2023-09-12T02:10:31;101266.00;;;20.62;80.24
36222;BME280;22266;52.340;4.962;2023-09-12T02:12:58;101262.66;;;20.60;80.27
36222;BME280;22266;52.340;4.962;2023-09-12T02:15:25;101259.09;;;20.60;80.37
36222;BME280;22266;52.340;4.962;2023-09-12T02:17:51;101252.00;;;20.59;80.35
36222;BME280;22266;52.340;4.962;2023-09-12T02:20:18;101254.72;;;20.59;80.43
36222;BME280;22266;52.340;4.962;2023-09-12T02:22:45;101248.44;;;20.58;80.55
36222;BME280;22266;52.340;4.962;2023-09-12T02:25:12;101242.97;;;20.58;80.25
36222;BME280;22266;52.340;4.962;2023-09-12T02:27:38;101237.97;;;20.55;80.31
36222;BME280;22266;52.340;4.962;2023-09-12T02:30:05;101249.75;;;20.56;80.55
36222;BME280;22266;52.340;4.962;2023-09-12T02:32:32;101247.28;;;20.54;80.62
36222;BME280;22266;52.340;4.962;2023-09-12T02:34:59;101250.25;;;20.53;80.77
36222;BME280;22266;52.340;4.962;2023-09-12T02:37:26;101257.63;;;20.52;80.52
36222;BME280;22266;52.340;4.962;2023-09-12T02:39:52;101252.88;;;20.47;80.77
36222;BME280;22266;52.340;4.962;2023-09-12T02:42:19;101250.97;;;20.48;80.69
36222;BME280;22266;52.340;4.962;2023-09-12T02:44:46;101246.81;;;20.45;80.74
36222;BME280;22266;52.340;4.962;2023-09-12T02:47:13;101256.94;;;20.45;80.50
36222;BME280;22266;52.340;4.962;2023-09-12T02:49:40;101256.09;;;20.44;80.87
36222;BME280;22266;52.340;4.962;2023-09-12T02:52:06;101248.97;;;20.43;80.66
36222;BME280;22266;52.340;4.962;2023-09-12T02:54:33;101244.59;;;20.42;80.96
36222;BME280;22266;52.340;4.962;2023-09-12T02:57:00;101253.03;;;20.41;80.79
36222;BME280;22266;52.340;4.962;2023-09-12T02:59:26;101251.38;;;20.40;80.77
36222;BME280;22266;52.340;4.962;2023-09-12T03:01:53;101247.22;;;20.37;80.91
36222;BME280;22266;52.340;4.962;2023-09-12T03:04:19;101258.44;;;20.36;80.87
36222;BME280;22266;52.340;4.962;2023-09-12T03:06:46;101256.78;;;20.35;80.83
36222;BME280;22266;52.340;4.962;2023-09-12T03:09:13;101258.44;;;20.36;80.93
36222;BME280;22266;52.340;4.962;2023-09-12T03:11:40;101243.34;;;20.33;80.83
36222;BME280;22266;52.340;4.962;2023-09-12T03:14:06;101251.31;;;20.35;81.15
36222;BME280;22266;52.340;4.962;2023-09-12T03:16:33;101241.69;;;20.32;80.97
36222;BME280;22266;52.340;4.962;2023-09-12T03:19:00;101246.59;;;20.30;81.02
36222;BME280;22266;52.340;4.962;2023-09-12T03:21:28;101238.63;;;20.29;80.77
36222;BME280;22266;52.340;4.962;2023-09-12T03:23:55;101239.97;;;20.26;80.79
36222;BME280;22266;52.340;4.962;2023-09-12T03:26:21;101241.88;;;20.25;80.93
36222;BME280;22266;52.340;4.962;2023-09-12T03:28:51;101232.00;;;20.24;80.94
36222;BME280;22266;52.340;4.962;2023-09-12T03:31:18;101237.13;;;20.21;80.91
36222;BME280;22266;52.340;4.962;2023-09-12T03:33:45;101247.50;;;20.19;81.09
36222;BME280;22266;52.340;4.962;2023-09-12T03:36:17;101241.22;;;20.18;81.13
36222;BME280;22266;52.340;4.962;2023-09-12T03:38:44;101238.69;;;20.17;81.17
36222;BME280;22266;52.340;4.962;2023-09-12T03:41:11;101238.13;;;20.15;81.14
36222;BME280;22266;52.340;4.962;2023-09-12T03:43:38;101241.09;;;20.13;81.30
36222;BME280;22266;52.340;4.962;2023-09-12T03:46:05;101239.22;;;20.14;81.16
36222;BME280;22266;52.340;4.962;2023-09-12T03:48:31;101236.72;;;20.12;81.28
36222;BME280;22266;52.340;4.962;2023-09-12T03:50:58;101244.09;;;20.12;81.18
36222;BME280;22266;52.340;4.962;2023-09-12T03:53:25;101246.25;;;20.10;81.24
36222;BME280;22266;52.340;4.962;2023-09-12T03:55:52;101249.81;;;20.10;81.40
36222;BME280;22266;52.340;4.962;2023-09-12T03:58:19;101251.97;;;20.08;81.35
36222;BME280;22266;52.340;4.962;2023-09-12T04:00:45;101244.34;;;20.10;81.36
36222;BME280;22266;52.340;4.962;2023-09-12T04:03:12;101249.81;;;20.10;81.51
36222;BME280;22266;52.340;4.962;2023-09-12T04:05:39;101247.31;;;20.09;81.58
36222;BME280;22266;52.340;4.962;2023-09-12T04:08:05;101244.84;;;20.07;81.66
36222;BME280;22266;52.340;4.962;2023-09-12T04:10:31;101242.69;;;20.09;81.70
36222;BME280;22266;52.340;4.962;2023-09-12T04:12:58;101241.84;;;20.09;81.70
36222;BME280;22266;52.340;4.962;2023-09-12T04:15:25;101241.03;;;20.08;81.71
36222;BME280;22266;52.340;4.962;2023-09-12T04:17:52;101239.38;;;20.07;81.68
36222;BME280;22266;52.340;4.962;2023-09-12T04:20:19;101246.50;;;20.08;81.83
36222;BME280;22266;52.340;4.962;2023-09-12T04:22:46;101238.28;;;20.08;81.84
36222;BME280;22266;52.340;4.962;2023-09-12T04:25:13;101241.03;;;20.08;81.98
36222;BME280;22266;52.340;4.962;2023-09-12T04:27:41;101248.41;;;20.08;82.19
36222;BME280;22266;52.340;4.962;2023-09-12T04:30:08;101243.75;;;20.08;82.29
36222;BME280;22266;52.340;4.962;2023-09-12T04:32:35;101230.09;;;20.08;82.18
36222;BME280;22266;52.340;4.962;2023-09-12T04:35:01;101245.66;;;20.08;82.38
36222;BME280;22266;52.340;4.962;2023-09-12T04:37:28;101245.66;;;20.08;82.42
36222;BME280;22266;52.340;4.962;2023-09-12T04:39:55;101242.69;;;20.09;82.46
36222;BME280;22266;52.340;4.962;2023-09-12T04:42:22;101247.91;;;20.11;82.70
36222;BME280;22266;52.340;4.962;2023-09-12T04:44:49;101246.50;;;20.08;82.42
36222;BME280;22266;52.340;4.962;2023-09-12T04:47:15;101244.03;;;20.07;82.63
36222;BME280;22266;52.340;4.962;2023-09-12T04:49:43;101234.16;;;20.06;82.77
36222;BME280;22266;52.340;4.962;2023-09-12T04:52:10;101234.41;;;20.04;82.75
36222;BME280;22266;52.340;4.962;2023-09-12T04:54:36;101231.94;;;20.03;82.74
36222;BME280;22266;52.340;4.962;2023-09-12T04:57:03;101225.38;;;20.04;82.69
36222;BME280;22266;52.340;4.962;2023-09-12T04:59:30;101223.72;;;20.03;82.89
36222;BME280;22266;52.340;4.962;2023-09-12T05:01:56;101228.94;;;20.04;82.94
36222;BME280;22266;52.340;4.962;2023-09-12T05:04:23;101235.75;;;20.02;82.95
36222;BME280;22266;52.340;4.962;2023-09-12T05:06:49;101232.16;;;20.01;83.02
36222;BME280;22266;52.340;4.962;2023-09-12T05:09:16;101234.06;;;20.00;82.93
36222;BME280;22266;52.340;4.962;2023-09-12T05:11:43;101228.59;;;20.00;83.10
36222;BME280;22266;52.340;4.962;2023-09-12T05:14:10;101222.31;;;20.00;83.07
36222;BME280;22266;52.340;4.962;2023-09-12T05:16:37;101239.53;;;20.00;82.99
36222;BME280;22266;52.340;4.962;2023-09-12T05:19:04;101236.56;;;20.02;83.09
36222;BME280;22266;52.340;4.962;2023-09-12T05:21:31;101227.53;;;20.02;83.11
36222;BME280;22266;52.340;4.962;2023-09-12T05:23:58;101229.41;;;20.01;83.03
36222;BME280;22266;52.340;4.962;2023-09-12T05:26:25;101231.09;;;20.02;83.11
36222;BME280;22266;52.340;4.962;2023-09-12T05:28:51;101230.28;;;20.02;83.33
36222;BME280;22266;52.340;4.962;2023-09-12T05:31:19;101230.84;;;20.04;83.27
36222;BME280;22266;52.340;4.962;2023-09-12T05:33:45;101230.00;;;20.03;83.51
36222;BME280;22266;52.340;4.962;2023-09-12T05:36:12;101229.75;;;20.05;83.53
36222;BME280;22266;52.340;4.962;2023-09-12T05:38:39;101234.16;;;20.06;83.83
36222;BME280;22266;52.340;4.962;2023-09-12T05:41:06;101236.03;;;20.05;83.70
36222;BME280;22266;52.340;4.962;2023-09-12T05:43:33;101236.03;;;20.05;83.81
36222;BME280;22266;52.340;4.962;2023-09-12T05:45:59;101238.78;;;20.05;83.91
36222;BME280;22266;52.340;4.962;2023-09-12T05:48:26;101243.19;;;20.06;84.00
36222;BME280;22266;52.340;4.962;2023-09-12T05:50:53;101237.72;;;20.06;84.04
36222;BME280;22266;52.340;4.962;2023-09-12T05:53:19;101250.31;;;20.07;84.20
36222;BME280;22266;52.340;4.962;2023-09-12T05:55:46;101248.41;;;20.08;84.00
36222;BME280;22266;52.340;4.962;2023-09-12T05:58:12;101256.59;;;20.08;84.25
36222;BME280;22266;52.340;4.962;2023-09-12T06:00:39;101256.03;;;20.06;84.08
36222;BME280;22266;52.340;4.962;2023-09-12T06:03:06;101260.41;;;20.07;84.32
36222;BME280;22266;52.340;4.962;2023-09-12T06:05:33;101259.59;;;20.06;84.45
36222;BME280;22266;52.340;4.962;2023-09-12T06:07:59;101257.91;;;20.05;84.35
36222;BME280;22266;52.340;4.962;2023-09-12T06:10:26;101254.13;;;20.06;84.78
36222;BME280;22266;52.340;4.962;2023-09-12T06:12:52;101250.31;;;20.07;84.73
36222;BME280;22266;52.340;4.962;2023-09-12T06:15:19;101260.75;;;20.10;84.64
36222;BME280;22266;52.340;4.962;2023-09-12T06:17:45;101257.19;;;20.10;84.60
36222;BME280;22266;52.340;4.962;2023-09-12T06:20:12;101246.25;;;20.10;84.56
36222;BME280;22266;52.340;4.962;2023-09-12T06:22:38;101245.19;;;20.11;84.65
36222;BME280;22266;52.340;4.962;2023-09-12T06:25:05;101261.31;;;20.12;84.81
36222;BME280;22266;52.340;4.962;2023-09-12T06:27:32;101250.97;;;20.14;84.71
36222;BME280;22266;52.340;4.962;2023-09-12T06:29:59;101252.63;;;20.15;84.92
36222;BME280;22266;52.340;4.962;2023-09-12T06:32:25;101253.47;;;20.16;84.82
36222;BME280;22266;52.340;4.962;2023-09-12T06:34:52;101258.09;;;20.15;84.76
36222;BME280;22266;52.340;4.962;2023-09-12T06:37:18;101260.56;;;20.17;84.86
36222;BME280;22266;52.340;4.962;2023-09-12T06:39:45;101262.25;;;20.18;84.79
36222;BME280;22266;52.340;4.962;2023-09-12T06:42:11;101265.81;;;20.18;84.80
36222;BME280;22266;52.340;4.962;2023-09-12T06:44:38;101266.16;;;20.22;84.84
36222;BME280;22266;52.340;4.962;2023-09-12T06:47:05;101276.00;;;20.23;84.96
36222;BME280;22266;52.340;4.962;2023-09-12T06:49:31;101266.97;;;20.22;84.87
36222;BME280;22266;52.340;4.962;2023-09-12T06:52:02;101274.91;;;20.24;84.77
36222;BME280;22266;52.340;4.962;2023-09-12T06:54:29;101277.91;;;20.22;84.75
36222;BME280;22266;52.340;4.962;2023-09-12T06:56:55;101286.09;;;20.22;84.95
36222;BME280;22266;52.340;4.962;2023-09-12T06:59:22;101289.66;;;20.23;85.27
36222;BME280;22266;52.340;4.962;2023-09-12T07:01:48;101291.56;;;20.22;85.04
36222;BME280;22266;52.340;4.962;2023-09-12T07:04:15;101285.28;;;20.22;85.05
36222;BME280;22266;52.340;4.962;2023-09-12T07:06:42;101290.75;;;20.22;85.28
36222;BME280;22266;52.340;4.962;2023-09-12T07:09:09;101289.91;;;20.21;85.36
36222;BME280;22266;52.340;4.962;2023-09-12T07:11:38;101285.63;;;20.25;85.39
36222;BME280;22266;52.340;4.962;2023-09-12T07:14:04;101285.63;;;20.25;85.40
36222;BME280;22266;52.340;4.962;2023-09-12T07:16:32;101285.63;;;20.25;85.39
36222;BME280;22266;52.340;4.962;2023-09-12T07:18:59;101278.25;;;20.26;85.38
36222;BME280;22266;52.340;4.962;2023-09-12T07:21:25;101273.59;;;20.27;85.54
36222;BME280;22266;52.340;4.962;2023-09-12T07:23:52;101264.91;;;20.30;85.48
36222;BME280;22266;52.340;4.962;2023-09-12T07:26:18;101274.50;;;20.32;85.59
36222;BME280;22266;52.340;4.962;2023-09-12T07:28:45;101271.53;;;20.34;85.59
36222;BME280;22266;52.340;4.962;2023-09-12T07:31:12;101275.09;;;20.34;85.45
36222;BME280;22266;52.340;4.962;2023-09-12T07:33:38;101272.69;;;20.38;85.56
36222;BME280;22266;52.340;4.962;2023-09-12T07:36:05;101268.88;;;20.39;85.64
36222;BME280;22266;52.340;4.962;2023-09-12T07:38:32;101284.28;;;20.45;85.53
36222;BME280;22266;52.340;4.962;2023-09-12T07:40:58;101284.53;;;20.43;85.46
36222;BME280;22266;52.340;4.962;2023-09-12T07:43:26;101295.22;;;20.45;85.54
36222;BME280;22266;52.340;4.962;2023-09-12T07:45:57;101290.34;;;20.47;85.42
36222;BME280;22266;52.340;4.962;2023-09-12T07:48:24;101291.53;;;20.51;85.47
36222;BME280;22266;52.340;4.962;2023-09-12T07:50:51;101290.44;;;20.52;85.33
36222;BME280;22266;52.340;4.962;2023-09-12T07:53:17;101302.47;;;20.51;85.40
36222;BME280;22266;52.340;4.962;2023-09-12T07:55:44;101304.13;;;20.52;85.49
36222;BME280;22266;52.340;4.962;2023-09-12T07:58:14;101303.28;;;20.52;85.40
36222;BME280;22266;52.340;4.962;2023-09-12T08:00:41;101300.44;;;20.46;84.83
36222;BME280;22266;52.340;4.962;2023-09-12T08:03:08;101303.69;;;20.43;85.48
36222;BME280;22266;52.340;4.962;2023-09-12T08:05:35;101305.31;;;20.44;85.76
36222;BME280;22266;52.340;4.962;2023-09-12T08:08:02;101305.53;;;20.55;85.85
36222;BME280;22266;52.340;4.962;2023-09-12T08:10:28;101309.25;;;20.65;85.66
36222;BME280;22266;52.340;4.962;2023-09-12T08:12:55;101303.94;;;20.76;85.46
36222;BME280;22266;52.340;4.962;2023-09-12T08:15:21;101307.81;;;20.80;85.15
36222;BME280;22266;52.340;4.962;2023-09-12T08:17:48;101313.03;;;20.81;84.94
36222;BME280;22266;52.340;4.962;2023-09-12T08:20:19;101319.59;;;20.80;84.66
36222;BME280;22266;52.340;4.962;2023-09-12T08:22:46;101315.44;;;20.78;84.41
36222;BME280;22266;52.340;4.962;2023-09-12T08:25:13;101316.53;;;20.77;84.30
36222;BME280;22266;52.340;4.962;2023-09-12T08:27:41;101320.09;;;20.77;84.12
36222;BME280;22266;52.340;4.962;2023-09-12T08:30:11;101318.44;;;20.76;84.08
36222;BME280;22266;52.340;4.962;2023-09-12T08:32:40;101313.88;;;20.82;84.21
36222;BME280;22266;52.340;4.962;2023-09-12T08:35:11;101327.66;;;20.87;84.23
36222;BME280;22266;52.340;4.962;2023-09-12T08:37:40;101324.16;;;20.91;84.27
36222;BME280;22266;52.340;4.962;2023-09-12T08:40:08;101326.13;;;20.96;84.17
36222;BME280;22266;52.340;4.962;2023-09-12T08:42:43;101319.91;;;21.01;83.84
36222;BME280;22266;52.340;4.962;2023-09-12T08:47:41;101338.50;;;20.98;83.69
36222;BME280;22266;52.340;4.962;2023-09-12T08:50:11;101334.34;;;20.96;83.59
36222;BME280;22266;52.340;4.962;2023-09-12T08:52:45;101335.50;;;21.00;83.53
36222;BME280;22266;52.340;4.962;2023-09-12T08:55:31;101337.47;;;21.05;83.61
36222;BME280;22266;52.340;4.962;2023-09-12T08:58:05;101331.22;;;21.09;83.25
36222;BME280;22266;52.340;4.962;2023-09-12T09:00:32;101337.78;;;21.08;83.10
36222;BME280;22266;52.340;4.962;2023-09-12T09:02:59;101341.34;;;21.09;83.19
36222;BME280;22266;52.340;4.962;2023-09-12T09:05:27;101339.78;;;21.13;83.18
36222;BME280;22266;52.340;4.962;2023-09-12T09:07:54;101329.97;;;21.17;83.29
36222;BME280;22266;52.340;4.962;2023-09-12T09:10:22;101330.31;;;21.20;82.79
36222;BME280;22266;52.340;4.962;2023-09-12T09:13:09;101326.47;;;21.21;82.36
36222;BME280;22266;52.340;4.962;2023-09-12T09:15:37;101317.16;;;21.22;82.55
36222;BME280;22266;52.340;4.962;2023-09-12T09:18:09;101322.97;;;21.26;82.36
36222;BME280;22266;52.340;4.962;2023-09-12T09:20:37;101323.25;;;21.24;81.82
36222;BME280;22266;52.340;4.962;2023-09-12T09:23:06;101313.94;;;21.26;82.04
36222;BME280;22266;52.340;4.962;2023-09-12T09:25:36;101318.59;;;21.25;81.77
36222;BME280;22266;52.340;4.962;2023-09-12T09:28:16;101314.25;;;21.29;81.48
36222;BME280;22266;52.340;4.962;2023-09-12T09:30:44;101329.13;;;21.33;81.70
36222;BME280;22266;52.340;4.962;2023-09-12T09:33:12;101325.63;;;21.38;81.59
36222;BME280;22266;52.340;4.962;2023-09-12T09:35:43;101322.66;;;21.39;81.51
36222;BME280;22266;52.340;4.962;2023-09-12T09:38:09;101318.81;;;21.40;81.38
36222;BME280;22266;52.340;4.962;2023-09-12T09:40:36;101318.00;;;21.40;81.20
36222;BME280;22266;52.340;4.962;2023-09-12T09:43:03;101318.00;;;21.40;81.17
36222;BME280;22266;52.340;4.962;2023-09-12T09:45:30;101323.19;;;21.41;81.54
36222;BME280;22266;52.340;4.962;2023-09-12T09:48:04;101321.63;;;21.45;81.42
36222;BME280;22266;52.340;4.962;2023-09-12T09:50:36;101325.75;;;21.48;81.46
36222;BME280;22266;52.340;4.962;2023-09-12T09:53:04;101323.06;;;21.53;81.15
36222;BME280;22266;52.340;4.962;2023-09-12T09:55:33;101322.91;;;21.60;81.01
36222;BME280;22266;52.340;4.962;2023-09-12T09:57:59;101330.91;;;21.66;81.15
36222;BME280;22266;52.340;4.962;2023-09-12T10:00:28;101332.03;;;21.70;81.09
36222;BME280;22266;52.340;4.962;2023-09-12T10:02:55;101335.09;;;21.74;80.88
36222;BME280;22266;52.340;4.962;2023-09-12T10:05:22;101340.13;;;21.82;80.75
36222;BME280;22266;52.340;4.962;2023-09-12T10:07:50;101337.16;;;21.84;80.48
36222;BME280;22266;52.340;4.962;2023-09-12T10:10:18;101328.38;;;21.87;80.42
36222;BME280;22266;52.340;4.962;2023-09-12T10:12:50;101334.00;;;21.97;80.16
36222;BME280;22266;52.340;4.962;2023-09-12T10:15:19;101332.63;;;22.00;79.71
36222;BME280;22266;52.340;4.962;2023-09-12T10:18:00;101336.25;;;22.05;79.21
36222;BME280;22266;52.340;4.962;2023-09-12T10:20:45;101338.75;;;22.07;79.46
36222;BME280;22266;52.340;4.962;2023-09-12T10:23:19;101337.09;;;22.06;78.97
36222;BME280;22266;52.340;4.962;2023-09-12T10:25:49;101337.34;;;22.04;79.08
36222;BME280;22266;52.340;4.962;2023-09-12T10:28:16;101336.25;;;22.05;78.63
36222;BME280;22266;52.340;4.962;2023-09-12T10:30:44;101334.66;;;22.09;78.42
36222;BME280;22266;52.340;4.962;2023-09-12T10:33:11;101332.47;;;22.11;78.22
36222;BME280;22266;52.340;4.962;2023-09-12T10:35:39;101341.63;;;22.17;78.21
36222;BME280;22266;52.340;4.962;2023-09-12T10:38:07;101335.88;;;22.18;77.84
36222;BME280;22266;52.340;4.962;2023-09-12T10:40:36;101338.66;;;22.24;77.74
36222;BME280;22266;52.340;4.962;2023-09-12T10:43:09;101330.72;;;22.27;77.73
36222;BME280;22266;52.340;4.962;2023-09-12T10:45:37;101329.41;;;22.30;77.28
36222;BME280;22266;52.340;4.962;2023-09-12T10:48:04;101328.31;;;22.31;77.29
36222;BME280;22266;52.340;4.962;2023-09-12T10:50:30;101329.72;;;22.33;77.26
36222;BME280;22266;52.340;4.962;2023-09-12T10:53:11;101333.56;;;22.32;76.40
36222;BME280;22266;52.340;4.962;2023-09-12T10:55:38;101339.78;;;22.28;76.56
36222;BME280;22266;52.340;4.962;2023-09-12T10:58:06;101332.94;;;22.25;76.21
36222;BME280;22266;52.340;4.962;2023-09-12T11:00:33;101324.63;;;22.20;75.25
36222;BME280;22266;52.340;4.962;2023-09-12T11:05:56;101327.69;;;22.24;74.60
36222;BME280;22266;52.340;4.962;2023-09-12T11:08:22;101320.34;;;22.29;74.70
36222;BME280;22266;52.340;4.962;2023-09-12T11:11:21;101328.63;;;22.34;74.45
36222;BME280;22266;52.340;4.962;2023-09-12T11:14:04;101324.06;;;22.45;73.96
36222;BME280;22266;52.340;4.962;2023-09-12T11:16:32;101319.69;;;22.49;73.41
36222;BME280;22266;52.340;4.962;2023-09-12T11:19:20;101318.09;;;22.53;73.62
36222;BME280;22266;52.340;4.962;2023-09-12T11:21:51;101320.81;;;22.53;73.34
36222;BME280;22266;52.340;4.962;2023-09-12T11:24:19;101319.38;;;22.45;73.31
36222;BME280;22266;52.340;4.962;2023-09-12T11:26:54;101320.19;;;22.41;73.40
36222;BME280;22266;52.340;4.962;2023-09-12T11:29:20;101326.44;;;22.36;73.55
36222;BME280;22266;52.340;4.962;2023-09-12T11:31:58;101327.28;;;22.37;73.46
36222;BME280;22266;52.340;4.962;2023-09-12T11:34:26;101329.13;;;22.31;72.91
36222;BME280;22266;52.340;4.962;2023-09-12T11:36:58;101316.19;;;22.27;72.63
36222;BME280;22266;52.340;4.962;2023-09-12T11:39:31;101314.28;;;22.27;72.87
36222;BME280;22266;52.340;4.962;2023-09-12T11:41:59;101315.38;;;22.26;72.76
36222;BME280;22266;52.340;4.962;2023-09-12T11:44:27;101319.25;;;22.30;72.97
36222;BME280;22266;52.340;4.962;2023-09-12T11:46:54;101324.47;;;22.32;73.03
36222;BME280;22266;52.340;4.962;2023-09-12T11:49:21;101322.81;;;22.31;73.15
36222;BME280;22266;52.340;4.962;2023-09-12T11:51:52;101311.03;;;22.30;72.69
36222;BME280;22266;52.340;4.962;2023-09-12T11:54:20;101318.69;;;22.28;72.56
36222;BME280;22266;52.340;4.962;2023-09-12T11:56:48;101325.00;;;22.29;72.93
36222;BME280;22266;52.340;4.962;2023-09-12T11:59:16;101329.66;;;22.28;73.22
36222;BME280;22266;52.340;4.962;2023-09-12T12:01:45;101330.50;;;22.29;73.07
36222;BME280;22266;52.340;4.962;2023-09-12T12:04:13;101328.00;;;22.27;73.09
36222;BME280;22266;52.340;4.962;2023-09-12T12:06:40;101325.25;;;22.27;72.98
36222;BME280;22266;52.340;4.962;2023-09-12T12:09:08;101322.78;;;22.26;72.78
36222;BME280;22266;52.340;4.962;2023-09-12T12:11:35;101329.88;;;22.21;72.80
36222;BME280;22266;52.340;4.962;2023-09-12T12:14:12;101332.94;;;22.25;72.71
36222;BME280;22266;52.340;4.962;2023-09-12T12:16:40;101326.63;;;22.25;72.63
36222;BME280;22266;52.340;4.962;2023-09-12T12:19:07;101329.91;;;22.27;72.72
36222;BME280;22266;52.340;4.962;2023-09-12T12:21:33;101322.81;;;22.31;72.97
36222;BME280;22266;52.340;4.962;2023-09-12T12:24:03;101322.31;;;22.34;73.01
36222;BME280;22266;52.340;4.962;2023-09-12T12:26:30;101318.22;;;22.36;73.30
36222;BME280;22266;52.340;4.962;2023-09-12T12:28:59;101330.03;;;22.37;73.62
36222;BME280;22266;52.340;4.962;2023-09-12T12:31:26;101325.31;;;22.32;73.39
36222;BME280;22266;52.340;4.962;2023-09-12T12:33:56;101330.50;;;22.29;73.54
36222;BME280;22266;52.340;4.962;2023-09-12T12:36:43;101318.94;;;22.27;73.36
36222;BME280;22266;52.340;4.962;2023-09-12T12:39:23;101314.03;;;22.29;73.75
36222;BME280;22266;52.340;4.962;2023-09-12T12:41:53;101314.34;;;22.32;73.92
36222;BME280;22266;52.340;4.962;2023-09-12T12:44:21;101311.06;;;22.35;74.18
36222;BME280;22266;52.340;4.962;2023-09-12T12:46:49;101314.38;;;22.37;74.19
36222;BME280;22266;52.340;4.962;2023-09-12T12:49:16;101316.00;;;22.33;73.65
36222;BME280;22266;52.340;4.962;2023-09-12T12:51:42;101310.19;;;22.30;73.26
36222;BME280;22266;52.340;4.962;2023-09-12T12:54:09;101314.88;;;22.29;73.09
36222;BME280;22266;52.340;4.962;2023-09-12T12:56:36;101308.56;;;22.29;73.10
36222;BME280;22266;52.340;4.962;2023-09-12T12:59:05;101306.63;;;22.29;72.96
36222;BME280;22266;52.340;4.962;2023-09-12T13:01:36;101301.97;;;22.30;72.95
36222;BME280;22266;52.340;4.962;2023-09-12T13:04:07;101300.38;;;22.34;73.27